NATURA VA

 METAR AND TAF INFORMATION
METAR FOR GMMX
ADDS - METARS form results

(1639 UTC 26 March 2019)
Data provider http://aviationweather.gov/metar/data/
 
METAR text: GMMX 261630Z 34011KT 310V010 8000 TS SCT026 FEW033CB SCT200 20/11 Q1007 NOSIG
Conditions at: GMMX (MARRAKECH/MENARA, MA) observed 1630 UTC 26 March 2019
Temperature: 20.0°C (68°F)
Dewpoint: 11.0°C (52°F) [RH = 56%]
Pressure (altimeter): 29.73 inches Hg (1007.0 mb)
Winds: from the NNW (340 degrees) at 13 MPH (11 knots; 5.7 m/s)
Visibility: 5 miles ( 8 km)
Ceiling: at least 12,000 feet AGL
Clouds: scattered clouds at 2600 feet AGL
few clouds at 3300 feet AGL
scattered clouds at 20000 feet AGL
Weather: TS  (thunderstorm)

METAR text: GMMX 261600Z 29009KT 250V350 8000 TS SCT026 SCT033CB 20/13 Q1006 NOSIG
Conditions at: GMMX (MARRAKECH/MENARA, MA) observed 1600 UTC 26 March 2019
Temperature: 20.0°C (68°F)
Dewpoint: 13.0°C (55°F) [RH = 64%]
Pressure (altimeter): 29.70 inches Hg (1006.0 mb)
Winds: from the WNW (290 degrees) at 10 MPH (9 knots; 4.6 m/s)
Visibility: 5 miles ( 8 km)
Ceiling: at least 12,000 feet AGL
Clouds: scattered clouds at 2600 feet AGL
scattered clouds at 3300 feet AGL
Weather: TS  (thunderstorm)

Forecast for: GMMX (MARRAKECH/MENARA, MA)
Text: TAF GMMX 261100Z 2612/2718 30008KT 8000 SCT026 SCT100
Forecast period: 1200 UTC 26 March 2019 to 1800 UTC 27 March 2019
Forecast type: FROM: standard forecast or significant change
Winds: from the WNW (300 degrees) at 9 MPH (8 knots; 4.1 m/s)
Visibility: 5 miles (8 km)
Ceiling: at least 12,000 feet AGL
Clouds: scattered clouds at 2600 feet AGL
scattered clouds at 10000 feet AGL
Weather: no significant weather forecast for this period
Text: TEMPO 2615/2701 24016KT 4000 TSRA BKN023 SCT030CB
Forecast period: 1500 UTC 26 March 2019 to 0100 UTC 27 March 2019
Forecast type: TEMPORARY: The following changes expected for less than half the time period
Winds: from the WSW (240 degrees) at 18 MPH (16 knots; 8.2 m/s)
Visibility: 2.49 miles (4.01 km)
Ceiling: 2300 feet AGL
Clouds: broken clouds at 2300 feet AGL
scattered clouds at 3000 feet AGL
Weather: TSRA  (rain associated with thunderstorm(s))

 AIRPORT MAP

 RUNWAY INFORMATION
Runway 10 Runway length 10170 ft Runway width 148 ft
Runway elevation 1506 ft Runway displaced threshold 918 ft Runway heading 96
Runway 28 Runway length 10170 ft Runway width 148 ft
Runway elevation 1545 ft Runway displaced threshold 0 ft Runway heading 276

 AIRPORT FREQUENCIES
Type APP Name MARRAKECH Frequency 119.7 MHZ
Type TWR Name MARRAKECH Frequency 118.7 MHZ

 AIRPORT NEAR NAVIGATION AIDS
Type NDB Name Marrakech Frequency 267 KHZ
Type VOR-DME Name Marrakech Frequency 113300 KHZ



Powered by Virtual Airlines Manager [v2.6.2]